Terminal Aerodrome Forecast
Issued by NWS

Home | Current Version | Previous Version | Text Only | Print | Product List | Glossary On
Versions: 1 2 3 4 5 6 7 8 9 10 11 12 13 14 15 16 17 18 19 20 21 22 23 24 25 26 27 28 29 30 31 32 33 34 35 36 37 38 39 40 41 42 43 44 45 46 47 48 49 50
000
FTUS45 KBOU 271550 AAB
TAFBJC
TAF AMD
KBJC 271550Z 2716/2812 VRB04KT P6SM SCT020 BKN027 BKN060
      TEMPO 2716/2717 5SM BR
     FM271800 07009KT P6SM FEW025 SCT050
     FM280200 VRB05KT P6SM FEW040 SCT080 BKN120
     FM280800 30008KT P6SM FEW025 SCT050 BKN100=

USA.gov is the U.S. government's official web portal to all federal, state and local government web resources and services.